Hovedside
METAR-TAF:

METAR-TAF

Lufthavner :

Zinder, Niger

breddegrad: 13-47N, lengdegrad: 008-59E, høyde over havet: 452 m

Gjeldene værobservasjon

Denne rapporten ble laget for 36 minutter siden, klokken 16:00 UTC
Vind 9 kt fra Vest
Temperatur 34°C
Luftfuktighet 53%
Trykk 1012 hPa
Sikt 10 km eller mer
Spredte skyer i en høyde av 3000 ft

METAR: DRZR 171600Z 28009KT 9999 SCT030 34/23 Q1012

Tid: 17:36 (16:36 UTC)

Varsel

Denne rapporten ble laget for 5 timer og 36 minutter siden, klokken 11:00 UTC
Varsel gyldig fra 17. klokken 12 UTC til 18. klokken 12 UTC
Vind 5 kt fra Sør-sørvest
Sikt 10 km eller mer
Spredte skyer i en høyde av 3000 ft
Midlertidig
fra 17. klokken 14 UTC til 17. klokken 19 UTC
Vind 20 kt fra Sørøst med vindkast opp mot 35 kt
Sikt: 0800 m
Brutte skyer i en høyde av 2600 ft
Få skyer i en høyde av 3500 ft, Bygeskyer.
vindbyger, støvdrev, torden, regn,

TAF: DRZR 171100Z 1712/1812 20005KT 9999 SCT030 TEMPO 1714/1719 14020G35KT 0800 SQ BLDU TSRA BKN026 FEW035CB

Værobservasjoner og værvarsel for over 4000 flyplasser (METAR- og TAF-rapporter).

Tilgjengelige stasjoner er representert av de røde og gule prikkene på kartet.

Hold musepekeren over prikken for å se navnet på stasjonen.

Klikk så for å se værobservasjoner og -varsler.

For å forandre kartet kan du klikke på den grønne knappen med svart kryss for å zoome inn, på den grønne knappen med strek for å zoome ut, eller på de grønne pilene for å se tilstøtende kart.


METAR-TAF: